createdAt,value
2023-08-07T00:00:21.033Z,3.05
2023-08-07T00:03:08.953Z,2.03
2023-08-07T00:05:36.809Z,1.88
2023-08-07T00:08:06.362Z,2.13
2023-08-07T00:10:33.717Z,2.15
2023-08-07T00:13:01.496Z,2.10
2023-08-07T00:15:28.977Z,2.17
2023-08-07T00:17:56.866Z,2.10
2023-08-07T00:20:24.648Z,2.08
2023-08-07T00:22:52.655Z,2.00
2023-08-07T00:25:21.858Z,2.05
2023-08-07T00:27:50.348Z,1.98
2023-08-07T00:30:17.800Z,2.20
2023-08-07T00:32:46.070Z,1.92
2023-08-07T00:35:13.569Z,1.85
2023-08-07T00:37:41.394Z,1.77
2023-08-07T00:40:10.082Z,2.08
2023-08-07T00:42:39.307Z,2.03
2023-08-07T00:45:07.604Z,1.95
2023-08-07T00:47:35.642Z,1.88
2023-08-07T00:50:05.018Z,2.33
2023-08-07T00:52:34.026Z,2.08
2023-08-07T00:55:01.557Z,1.55
2023-08-07T00:57:29.605Z,1.98
2023-08-07T01:00:22.096Z,1.70
2023-08-07T01:02:53.402Z,2.13
2023-08-07T01:05:21.676Z,2.65
2023-08-07T01:07:49.853Z,2.20
2023-08-07T01:10:17.469Z,2.08
2023-08-07T01:12:53.247Z,1.90
2023-08-07T01:15:26.678Z,1.70
2023-08-07T01:17:56.934Z,1.95
2023-08-07T01:20:24.858Z,1.85
2023-08-07T01:22:54.022Z,1.85
2023-08-07T01:25:21.731Z,2.35
2023-08-07T01:27:56.280Z,1.77
2023-08-07T01:30:30.308Z,1.80
2023-08-07T01:33:05.819Z,1.90
2023-08-07T01:35:36.390Z,2.00
2023-08-07T01:38:10.229Z,1.90
2023-08-07T01:40:40.190Z,2.00
2023-08-07T01:43:08.398Z,2.50
2023-08-07T01:45:35.916Z,2.35
2023-08-07T01:48:04.284Z,2.20
2023-08-07T01:50:32.884Z,2.20
2023-08-07T01:53:00.738Z,2.20
2023-08-07T01:55:29.561Z,2.20
2023-08-07T01:57:57.413Z,2.20
2023-08-07T02:00:24.893Z,1.95
2023-08-07T02:02:57.378Z,2.30
2023-08-07T02:05:25.173Z,2.17
2023-08-07T02:07:52.923Z,2.38
2023-08-07T02:10:20.423Z,2.28
2023-08-07T02:12:53.363Z,2.40
2023-08-07T02:15:20.804Z,2.50
2023-08-07T02:17:48.574Z,2.22
2023-08-07T02:20:16.097Z,2.20
2023-08-07T02:22:43.920Z,2.40
2023-08-07T02:25:11.400Z,2.10
2023-08-07T02:27:39.392Z,2.70
2023-08-07T02:30:09.065Z,2.30
2023-08-07T02:32:36.962Z,2.83
2023-08-07T02:35:05.244Z,2.55
2023-08-07T02:37:32.956Z,2.42
2023-08-07T02:40:00.295Z,2.80
2023-08-07T02:42:28.094Z,2.47
2023-08-07T02:44:55.467Z,2.72
2023-08-07T02:47:24.761Z,2.60
2023-08-07T02:49:52.231Z,2.20
2023-08-07T02:52:20.065Z,2.50
2023-08-07T02:54:47.734Z,2.63
2023-08-07T02:57:15.578Z,2.72
2023-08-07T02:59:43.125Z,2.60
2023-08-07T03:02:10.959Z,2.30
2023-08-07T03:04:39.786Z,2.72
2023-08-07T03:07:07.673Z,2.80
2023-08-07T03:09:35.111Z,2.50
2023-08-07T03:12:03.553Z,2.60
2023-08-07T03:14:35.769Z,2.78
2023-08-07T03:17:03.799Z,2.60
2023-08-07T03:19:31.699Z,2.35
2023-08-07T03:22:04.931Z,2.83
2023-08-07T03:24:32.429Z,2.75
2023-08-07T03:27:00.287Z,2.80
2023-08-07T03:29:28.091Z,2.70
2023-08-07T03:31:55.898Z,2.35
2023-08-07T03:34:23.275Z,2.75
2023-08-07T03:36:51.188Z,2.78
2023-08-07T03:39:24.487Z,2.78
2023-08-07T03:41:52.435Z,3.33
2023-08-07T03:44:19.887Z,2.92
2023-08-07T03:46:47.756Z,2.83
2023-08-07T03:49:15.390Z,2.78
2023-08-07T03:51:43.279Z,2.50
2023-08-07T03:54:10.798Z,2.85
2023-08-07T03:56:40.007Z,2.35
2023-08-07T03:59:07.680Z,3.13
2023-08-07T04:01:35.478Z,2.80
2023-08-07T04:04:03.042Z,2.50
2023-08-07T04:06:30.968Z,2.92
2023-08-07T04:09:02.769Z,2.63
2023-08-07T04:11:30.573Z,3.00
2023-08-07T04:13:59.479Z,2.72
2023-08-07T04:16:27.293Z,2.92
2023-08-07T04:18:54.766Z,3.50
2023-08-07T04:21:22.690Z,3.40
2023-08-07T04:23:50.188Z,3.00
2023-08-07T04:26:18.030Z,2.97
2023-08-07T04:28:45.524Z,3.03
2023-08-07T04:31:14.932Z,2.53
2023-08-07T04:33:42.423Z,2.67
2023-08-07T04:36:14.369Z,2.63
2023-08-07T04:38:41.701Z,2.70
2023-08-07T04:41:09.609Z,3.30
2023-08-07T04:43:37.257Z,3.22
2023-08-07T04:46:05.141Z,3.03
2023-08-07T04:48:34.092Z,3.20
2023-08-07T04:51:02.018Z,3.25
2023-08-07T04:53:29.822Z,2.90
2023-08-07T04:55:57.682Z,3.25
2023-08-07T04:58:25.155Z,2.75
2023-08-07T05:00:56.731Z,3.28
2023-08-07T05:03:24.255Z,2.58
2023-08-07T05:05:59.563Z,2.42
2023-08-07T05:08:26.925Z,2.70
2023-08-07T05:10:54.716Z,2.35
2023-08-07T05:13:22.106Z,1.95
2023-08-07T05:15:50.191Z,2.15
2023-08-07T05:18:17.594Z,2.13
2023-08-07T05:20:45.423Z,2.03
2023-08-07T05:23:14.299Z,1.90
2023-08-07T05:25:42.111Z,2.53
2023-08-07T05:28:09.511Z,2.00
2023-08-07T05:30:37.615Z,2.30
2023-08-07T05:33:05.111Z,2.05
2023-08-07T05:35:33.163Z,1.90
2023-08-07T05:38:00.543Z,1.92
2023-08-07T05:40:29.709Z,2.08
2023-08-07T05:42:57.307Z,2.10
2023-08-07T05:45:25.074Z,1.85
2023-08-07T05:47:52.523Z,1.90
2023-08-07T05:50:20.383Z,1.98
2023-08-07T05:52:47.834Z,1.70
2023-08-07T05:55:15.833Z,1.60
2023-08-07T05:57:44.841Z,1.67
2023-08-07T06:00:13.324Z,1.48
2023-08-07T06:02:40.744Z,1.90
2023-08-07T06:05:13.365Z,1.38
2023-08-07T06:07:40.826Z,1.73
2023-08-07T06:10:09.361Z,1.77
2023-08-07T06:12:36.816Z,1.75
2023-08-07T06:15:11.215Z,1.52
2023-08-07T06:17:38.708Z,1.77
2023-08-07T06:20:10.413Z,1.80
2023-08-07T06:22:39.203Z,1.30
2023-08-07T06:25:07.919Z,1.40
2023-08-07T06:27:35.535Z,1.70
2023-08-07T06:30:03.771Z,1.60
2023-08-07T06:32:33.110Z,1.77
2023-08-07T06:35:00.937Z,1.70
2023-08-07T06:37:28.327Z,1.60
2023-08-07T06:39:56.075Z,1.80
2023-08-07T06:42:23.581Z,2.17
2023-08-07T06:44:51.544Z,1.90
2023-08-07T06:47:18.909Z,2.00
2023-08-07T06:49:48.102Z,1.98
2023-08-07T06:52:15.522Z,1.90
2023-08-07T06:54:43.328Z,2.03
2023-08-07T06:57:10.833Z,2.20
2023-08-07T06:59:38.611Z,1.83
2023-08-07T07:02:06.712Z,1.60
2023-08-07T07:04:34.504Z,1.55
2023-08-07T07:07:07.404Z,1.77
2023-08-07T07:09:38.046Z,1.95
2023-08-07T07:12:06.180Z,2.00
2023-08-07T07:14:34.271Z,1.90
2023-08-07T07:17:01.685Z,1.83
2023-08-07T07:19:29.581Z,1.92
2023-08-07T07:21:57.138Z,1.55
2023-08-07T07:24:26.547Z,1.60
2023-08-07T07:26:54.074Z,2.17
2023-08-07T07:29:21.771Z,1.88
2023-08-07T07:31:50.544Z,2.38
2023-08-07T07:34:24.382Z,2.00
2023-08-07T07:36:51.829Z,2.15
2023-08-07T07:39:19.724Z,2.15
2023-08-07T07:41:48.522Z,2.50
2023-08-07T07:44:16.424Z,2.20
2023-08-07T07:46:43.837Z,2.20
2023-08-07T07:49:11.695Z,2.10
2023-08-07T07:51:39.150Z,2.15
2023-08-07T07:56:37.431Z,3.22
2023-08-07T07:59:10.277Z,2.13
2023-08-07T08:01:37.769Z,2.00
2023-08-07T08:04:06.005Z,2.33
2023-08-07T08:06:33.518Z,2.50
2023-08-07T08:09:01.409Z,2.15
2023-08-07T08:11:28.871Z,2.13
2023-08-07T08:13:56.786Z,2.13
2023-08-07T08:16:25.796Z,2.03
2023-08-07T08:18:53.649Z,2.05
2023-08-07T08:21:20.993Z,2.08
2023-08-07T08:23:53.382Z,2.83
2023-08-07T08:26:21.057Z,2.20
2023-08-07T08:28:48.945Z,2.33
2023-08-07T08:31:16.339Z,1.95
2023-08-07T08:33:49.506Z,2.15
2023-08-07T08:36:16.901Z,2.00
2023-08-07T08:38:45.030Z,2.20
2023-08-07T08:41:12.639Z,2.50
2023-08-07T08:43:42.024Z,2.20
2023-08-07T08:46:14.793Z,2.17
2023-08-07T08:48:51.241Z,2.00
2023-08-07T08:51:20.504Z,2.38
2023-08-07T08:53:48.750Z,2.45
2023-08-07T08:56:16.998Z,3.00
2023-08-07T08:58:50.085Z,2.28
2023-08-07T09:01:19.263Z,2.38
2023-08-07T09:03:56.984Z,2.53
2023-08-07T09:06:24.768Z,2.40
2023-08-07T09:08:54.618Z,2.28
2023-08-07T09:11:22.165Z,2.58
2023-08-07T09:13:50.521Z,2.30
2023-08-07T09:16:19.000Z,2.63
2023-08-07T09:18:48.339Z,2.42
2023-08-07T09:21:15.976Z,2.30
2023-08-07T09:23:43.952Z,2.38
2023-08-07T09:26:12.250Z,2.03
2023-08-07T09:28:40.215Z,2.28
2023-08-07T09:31:08.105Z,1.92
2023-08-07T09:33:35.970Z,1.75
2023-08-07T09:36:09.744Z,1.75
2023-08-07T09:38:37.647Z,1.90
2023-08-07T09:41:05.376Z,1.98
2023-08-07T09:43:40.692Z,1.35
2023-08-07T09:46:08.810Z,1.77
2023-08-07T09:48:41.553Z,1.90
2023-08-07T09:51:14.445Z,1.92
2023-08-07T09:53:43.304Z,1.85
2023-08-07T09:56:10.748Z,1.88
2023-08-07T09:58:38.497Z,1.92
2023-08-07T10:01:06.079Z,1.70
2023-08-07T10:03:34.574Z,1.85
2023-08-07T10:06:02.624Z,2.50
2023-08-07T10:08:33.172Z,1.85
2023-08-07T10:11:01.337Z,1.70
2023-08-07T10:16:02.149Z,1.83
2023-08-07T10:18:30.079Z,1.95
2023-08-07T10:21:01.688Z,1.45
2023-08-07T10:23:35.738Z,1.50
2023-08-07T10:26:05.578Z,1.63
2023-08-07T10:28:36.969Z,1.60
2023-08-07T10:31:05.080Z,1.80
2023-08-07T10:33:33.733Z,1.60
2023-08-07T10:36:01.316Z,1.70
2023-08-07T10:38:31.096Z,1.48
2023-08-07T10:41:06.969Z,1.98
2023-08-07T10:43:38.413Z,1.50
2023-08-07T10:46:06.468Z,1.67
2023-08-07T10:48:39.986Z,1.60
2023-08-07T10:51:07.922Z,1.55
2023-08-07T10:53:38.273Z,1.88
2023-08-07T10:56:16.005Z,1.70
2023-08-07T10:58:49.121Z,1.58
2023-08-07T11:01:24.014Z,1.60
2023-08-07T11:03:53.253Z,1.50
2023-08-07T11:06:24.165Z,1.85
2023-08-07T11:11:23.519Z,2.28
2023-08-07T11:13:51.754Z,1.65
2023-08-07T11:16:21.408Z,1.73
2023-08-07T11:18:50.497Z,1.70
2023-08-07T11:21:18.072Z,1.70
2023-08-07T11:23:50.368Z,1.60
2023-08-07T11:26:17.896Z,1.88
2023-08-07T11:28:47.275Z,1.63
2023-08-07T11:31:15.046Z,1.70
2023-08-07T11:33:42.986Z,1.75
2023-08-07T11:36:14.461Z,1.42
2023-08-07T11:38:44.260Z,1.75
2023-08-07T11:41:13.252Z,1.55
2023-08-07T11:43:41.916Z,1.40
2023-08-07T11:46:12.256Z,1.75
2023-08-07T11:48:41.134Z,1.77
2023-08-07T11:51:08.899Z,2.00
2023-08-07T11:53:38.303Z,2.15
2023-08-07T11:56:06.991Z,2.20
2023-08-07T11:58:36.442Z,1.98
2023-08-07T12:01:07.868Z,1.88
2023-08-07T12:06:07.878Z,1.88
2023-08-07T12:08:37.174Z,2.08
2023-08-07T12:11:06.430Z,2.03
2023-08-07T12:13:38.199Z,2.20
2023-08-07T12:16:06.519Z,2.22
2023-08-07T12:18:51.992Z,2.50
2023-08-07T12:21:21.836Z,2.20
2023-08-07T12:23:50.043Z,1.92
2023-08-07T12:26:22.806Z,1.77
2023-08-07T12:28:58.214Z,1.88
2023-08-07T12:31:25.668Z,1.90
2023-08-07T12:34:35.472Z,2.08
2023-08-07T12:36:45.661Z,1.88
2023-08-07T12:39:13.525Z,2.05
2023-08-07T12:44:11.721Z,1.80
2023-08-07T12:46:40.253Z,1.92
2023-08-07T12:49:11.337Z,1.70
2023-08-07T12:51:38.779Z,1.88
2023-08-07T12:54:09.592Z,1.80
2023-08-07T12:56:37.018Z,2.00
2023-08-07T12:59:04.832Z,2.30
2023-08-07T13:01:32.534Z,2.47
2023-08-07T13:04:00.432Z,2.53
2023-08-07T13:06:33.343Z,2.17
2023-08-07T13:09:01.305Z,2.72
2023-08-07T13:11:28.827Z,2.20
2023-08-07T13:13:56.796Z,2.30
2023-08-07T13:16:24.537Z,2.13
2023-08-07T13:18:52.408Z,2.08
2023-08-07T13:21:19.903Z,1.80
2023-08-07T13:23:49.093Z,1.75
2023-08-07T13:26:16.649Z,1.75
2023-08-07T13:28:44.475Z,1.73
2023-08-07T13:31:11.994Z,1.80
2023-08-07T13:33:44.247Z,1.70
2023-08-07T13:36:11.658Z,1.60
2023-08-07T13:38:46.775Z,1.45
2023-08-07T13:41:16.550Z,1.73
2023-08-07T13:43:44.344Z,1.30
2023-08-07T13:46:11.866Z,1.33
2023-08-07T13:48:39.724Z,1.30
2023-08-07T13:51:07.224Z,1.02
2023-08-07T13:53:35.059Z,1.00
2023-08-07T13:56:02.540Z,1.20
2023-08-07T13:58:35.450Z,0.98
2023-08-07T14:01:02.894Z,1.08
2023-08-07T14:03:36.093Z,1.00
2023-08-07T14:06:03.928Z,1.10
2023-08-07T14:08:31.851Z,1.10
2023-08-07T14:10:59.371Z,1.08
2023-08-07T14:13:32.945Z,1.10
2023-08-07T14:16:00.471Z,1.10
2023-08-07T14:18:33.474Z,1.00
2023-08-07T14:21:03.285Z,1.10
2023-08-07T14:23:37.424Z,0.93
2023-08-07T14:26:04.804Z,0.90
2023-08-07T14:28:38.508Z,1.20
2023-08-07T14:31:08.561Z,0.93
2023-08-07T14:33:37.325Z,0.85
2023-08-07T14:36:05.501Z,0.88
2023-08-07T14:38:37.313Z,0.90
2023-08-07T14:41:04.985Z,0.70
2023-08-07T14:43:42.495Z,0.82
2023-08-07T14:46:10.069Z,0.90
2023-08-07T14:48:42.386Z,0.75
2023-08-07T14:51:10.000Z,1.00
2023-08-07T14:53:38.009Z,0.93
2023-08-07T14:56:05.489Z,1.00
2023-08-07T14:58:33.457Z,0.98
2023-08-07T15:01:02.411Z,1.10
2023-08-07T15:03:32.937Z,1.00
2023-08-07T15:06:06.799Z,0.90
2023-08-07T15:08:49.050Z,0.93
2023-08-07T15:14:05.778Z,1.20
2023-08-07T15:16:58.766Z,0.98
2023-08-07T15:19:26.369Z,0.98
2023-08-07T15:22:12.799Z,0.82
2023-08-07T15:24:43.220Z,0.77
2023-08-07T15:27:22.765Z,1.08
2023-08-07T15:29:50.279Z,0.80
2023-08-07T15:32:24.593Z,0.70
2023-08-07T15:34:56.750Z,1.00
2023-08-07T15:37:24.827Z,1.10
2023-08-07T15:39:52.477Z,0.80
2023-08-07T15:42:25.789Z,0.82
2023-08-07T15:44:58.783Z,0.90
2023-08-07T15:47:36.497Z,0.95
2023-08-07T15:50:08.172Z,0.70
2023-08-07T15:53:00.777Z,0.80
2023-08-07T15:55:34.765Z,0.82
2023-08-07T15:58:03.143Z,0.90
2023-08-07T16:00:36.234Z,0.85
2023-08-07T16:03:06.642Z,0.73
2023-08-07T16:05:35.553Z,1.00
2023-08-07T16:08:03.836Z,1.08
2023-08-07T16:10:36.775Z,1.00
2023-08-07T16:13:04.859Z,1.02
2023-08-07T16:15:32.837Z,0.93
2023-08-07T16:18:00.365Z,0.90
2023-08-07T16:23:36.724Z,0.85
2023-08-07T16:26:04.648Z,0.98
2023-08-07T16:31:33.546Z,0.80
2023-08-07T16:34:12.777Z,0.90
2023-08-07T16:39:21.725Z,0.70
2023-08-07T16:42:00.852Z,1.42
2023-08-07T16:51:49.925Z,0.73
2023-08-07T16:54:42.770Z,0.77
2023-08-07T16:57:10.395Z,0.93
2023-08-07T17:02:37.210Z,0.80
2023-08-07T17:05:10.821Z,0.70
2023-08-07T17:07:38.307Z,0.68
2023-08-07T17:10:07.694Z,0.98
2023-08-07T17:12:37.119Z,0.70
2023-08-07T17:15:15.774Z,0.80
2023-08-07T17:17:54.519Z,0.80
2023-08-07T17:20:42.790Z,0.70
2023-08-07T17:23:22.402Z,0.90
2023-08-07T17:26:02.825Z,1.20
2023-08-07T17:34:29.503Z,0.90
2023-08-07T17:37:01.817Z,0.80
2023-08-07T17:39:32.471Z,0.85
2023-08-07T17:42:05.616Z,0.88
2023-08-07T17:44:33.099Z,0.80
2023-08-07T17:49:59.923Z,0.95
2023-08-07T17:52:42.930Z,0.70
2023-08-07T17:55:10.682Z,0.88
2023-08-07T17:57:53.965Z,0.50
2023-08-07T18:00:26.823Z,0.90
2023-08-07T18:03:09.398Z,0.73
2023-08-07T18:05:47.800Z,0.80
2023-08-07T18:08:15.837Z,0.80
2023-08-07T18:10:48.771Z,1.02
2023-08-07T18:13:23.315Z,0.80
2023-08-07T18:15:50.900Z,0.70
2023-08-07T18:18:31.804Z,0.70
2023-08-07T18:21:13.827Z,0.68
2023-08-07T18:23:56.168Z,0.80
2023-08-07T18:29:56.775Z,0.90
2023-08-07T18:32:30.629Z,0.60
2023-08-07T18:34:58.412Z,0.90
2023-08-07T18:40:21.969Z,0.70
2023-08-07T18:45:50.463Z,0.82
2023-08-07T18:48:18.630Z,0.70
2023-08-07T18:50:50.785Z,0.80
2023-08-07T18:56:33.835Z,0.90
2023-08-07T18:59:07.830Z,0.90
2023-08-07T19:01:36.815Z,0.90
2023-08-07T19:07:18.097Z,0.70
2023-08-07T19:09:46.174Z,0.80
2023-08-07T19:12:13.724Z,0.80
2023-08-07T19:14:45.773Z,0.70
2023-08-07T19:17:14.793Z,0.60
2023-08-07T19:19:46.780Z,0.90
2023-08-07T19:22:16.966Z,0.70
2023-08-07T19:24:47.319Z,0.70
2023-08-07T19:27:14.974Z,0.80
2023-08-07T19:29:42.990Z,0.80
2023-08-07T19:32:11.201Z,0.80
2023-08-07T19:34:40.641Z,0.95
2023-08-07T19:37:08.253Z,1.02
2023-08-07T19:39:40.586Z,1.23
2023-08-07T19:42:08.896Z,0.80
2023-08-07T19:44:36.950Z,1.02
2023-08-07T19:47:10.242Z,0.80
2023-08-07T19:49:43.226Z,0.82
2023-08-07T19:52:10.872Z,0.90
2023-08-07T19:54:38.949Z,0.88
2023-08-07T19:57:06.756Z,1.50
2023-08-07T19:59:39.654Z,0.70
2023-08-07T20:02:07.616Z,0.90
2023-08-07T20:04:56.820Z,0.90
2023-08-07T20:07:24.531Z,1.02
2023-08-07T20:09:57.742Z,0.90
2023-08-07T20:12:25.284Z,1.40
2023-08-07T20:14:53.452Z,1.17
2023-08-07T20:17:21.109Z,1.15
2023-08-07T20:19:50.639Z,1.15
2023-08-07T20:22:18.381Z,1.10
2023-08-07T20:24:47.058Z,1.30
2023-08-07T20:27:14.715Z,1.63
2023-08-07T20:29:47.417Z,1.20
2023-08-07T20:32:15.172Z,1.40
2023-08-07T20:34:43.012Z,1.20
2023-08-07T20:37:12.217Z,1.50
2023-08-07T20:39:42.646Z,1.30
2023-08-07T20:42:10.653Z,1.25
2023-08-07T20:44:40.648Z,1.80
2023-08-07T20:47:14.184Z,1.35
2023-08-07T20:49:42.154Z,1.60
2023-08-07T20:52:11.190Z,1.23
2023-08-07T20:54:39.335Z,1.23
2023-08-07T20:57:07.520Z,1.30
2023-08-07T20:59:40.470Z,1.33
2023-08-07T21:02:08.196Z,1.33
2023-08-07T21:04:39.454Z,1.10
2023-08-07T21:07:10.925Z,1.38
2023-08-07T21:09:38.791Z,1.17
2023-08-07T21:12:07.432Z,1.30
2023-08-07T21:14:35.428Z,1.30
2023-08-07T21:17:06.472Z,1.30
2023-08-07T21:19:38.957Z,1.40
2023-08-07T21:22:11.484Z,1.30
2023-08-07T21:24:43.755Z,1.40
2023-08-07T21:27:13.893Z,1.17
2023-08-07T21:29:46.788Z,1.15
2023-08-07T21:32:14.207Z,1.30
2023-08-07T21:34:42.100Z,1.80
2023-08-07T21:37:13.978Z,1.70
2023-08-07T21:39:58.790Z,1.50
2023-08-07T21:42:26.334Z,1.10
2023-08-07T21:44:56.660Z,1.48
2023-08-07T21:47:24.308Z,1.40
2023-08-07T21:50:07.724Z,1.25
2023-08-07T21:52:46.303Z,1.40
2023-08-07T21:55:19.190Z,1.27
2023-08-07T21:57:49.776Z,1.40
2023-08-07T22:00:22.763Z,1.35
2023-08-07T22:02:50.321Z,1.30
2023-08-07T22:05:23.741Z,1.58
2023-08-07T22:07:52.820Z,1.70
2023-08-07T22:10:23.595Z,1.50
2023-08-07T22:12:52.704Z,1.50
2023-08-07T22:15:28.570Z,1.45
2023-08-07T22:18:02.832Z,1.50
2023-08-07T22:20:30.957Z,1.77
2023-08-07T22:23:11.766Z,1.60
2023-08-07T22:25:39.770Z,1.73
2023-08-07T22:28:14.775Z,2.67
2023-08-07T22:30:52.782Z,1.30
2023-08-07T22:33:20.621Z,1.80
2023-08-07T22:35:48.624Z,1.65
2023-08-07T22:38:25.793Z,1.60
2023-08-07T22:41:05.785Z,1.55
2023-08-07T22:43:38.857Z,1.50
2023-08-07T22:46:11.295Z,1.48
2023-08-07T22:48:41.488Z,1.70
2023-08-07T22:51:22.816Z,1.60
2023-08-07T22:53:51.794Z,1.63
2023-08-07T22:56:24.956Z,1.55
2023-08-07T22:58:52.819Z,1.67
2023-08-07T23:01:20.754Z,2.22
2023-08-07T23:03:48.288Z,1.52
2023-08-07T23:06:16.164Z,1.55
2023-08-07T23:08:43.618Z,1.40
2023-08-07T23:11:12.880Z,1.30
2023-08-07T23:13:42.780Z,1.55
2023-08-07T23:16:10.716Z,1.38
2023-08-07T23:18:45.759Z,1.60
2023-08-07T23:21:13.520Z,1.77
2023-08-07T23:23:41.095Z,1.52
2023-08-07T23:26:17.452Z,1.70
2023-08-07T23:28:45.194Z,1.40
2023-08-07T23:31:13.163Z,1.67
2023-08-07T23:33:40.473Z,1.52
2023-08-07T23:36:08.478Z,1.60
2023-08-07T23:38:36.103Z,1.70
2023-08-07T23:41:04.228Z,1.50
2023-08-07T23:43:37.431Z,1.60
2023-08-07T23:46:09.763Z,1.70
2023-08-07T23:48:37.235Z,1.30
2023-08-07T23:51:05.183Z,1.45
2023-08-07T23:53:32.695Z,2.10
2023-08-07T23:56:00.743Z,1.50
2023-08-07T23:58:28.143Z,1.50
